Time;durP1;ratioP1;P1;durP2;ratioP2;P2;SDS_P1;SDS_P2;PMS_P1;PMS_P2;Temp;Humidity;BMP_temperature;BMP_pressure;BME280_temperature;BME280_humidity;BME280_pressure;Samples;Min_cycle;Max_cycle;Signal;HPM_P1;HPM_P2
2023/09/19 00:01:40;;;;;;;;;;;13.80;99.90;;;;;;4880440;29;19998;-82
2023/09/19 00:04:09;;;;;;;;;;;13.90;99.90;;;;;;4864952;29;19927;-81
2023/09/19 00:06:38;;;;;;;;;;;13.80;99.90;;;;;;4865768;29;19924;-81
2023/09/19 00:09:04;;;;;;;;;;;13.80;99.90;;;;;;4864814;29;19983;-81
2023/09/19 00:11:30;;;;;;;;;;;13.80;99.90;;;;;;4864772;29;19927;-81
2023/09/19 00:13:59;;;;;;;;;;;13.80;99.90;;;;;;4864830;29;19927;-81
2023/09/19 00:16:25;;;;;;;;;;;13.70;99.90;;;;;;4864968;29;19920;-81
2023/09/19 00:18:55;;;;;;;;;;;13.70;99.90;;;;;;4880541;29;19958;-81
2023/09/19 00:21:20;;;;;;;;;;;13.60;99.90;;;;;;4864951;29;19920;-81
2023/09/19 00:23:46;;;;;;;;;;;13.60;99.90;;;;;;4864573;29;19926;-81
2023/09/19 00:26:12;;;;;;;;;;;13.60;99.90;;;;;;4864930;29;19970;-81
2023/09/19 00:28:39;;;;;;;;;;;13.70;99.90;;;;;;4867453;29;19920;-82
2023/09/19 00:31:08;;;;;;;;;;;13.70;99.90;;;;;;4864867;29;19920;-81
2023/09/19 00:33:34;;;;;;;;;;;13.60;99.90;;;;;;4864716;29;19920;-81
2023/09/19 00:36:02;;;;;;;;;;;13.60;99.90;;;;;;4880275;29;19919;-81
2023/09/19 00:38:27;;;;;;;;;;;13.60;99.90;;;;;;4848562;29;19935;-81
2023/09/19 00:40:53;;;;;;;;;;;13.60;99.90;;;;;;4880071;29;19924;-81
2023/09/19 00:43:19;;;;;;;;;;;13.50;99.90;;;;;;4879222;29;19923;-81
2023/09/19 00:45:47;;;;;;;;;;;13.50;99.90;;;;;;4867826;29;20003;-82
2023/09/19 00:48:13;;;;;;;;;;;13.40;99.90;;;;;;4864001;29;19919;-82
2023/09/19 00:50:42;;;;;;;;;;;13.40;99.90;;;;;;4880599;29;19939;-82
2023/09/19 00:53:08;;;;;;;;;;;13.40;99.90;;;;;;4877404;29;19976;-82
2023/09/19 00:55:34;;;;;;;;;;;13.40;99.90;;;;;;4863883;29;19923;-82
2023/09/19 00:58:00;;;;;;;;;;;13.40;99.90;;;;;;4844792;29;19924;-82
2023/09/19 01:00:26;;;;;;;;;;;13.40;99.90;;;;;;4863352;29;20379;-81
2023/09/19 01:02:51;;;;;;;;;;;13.40;99.90;;;;;;4863806;29;19923;-82
2023/09/19 01:05:18;;;;;;;;;;;13.30;99.90;;;;;;4879748;29;19919;-81
2023/09/19 01:07:50;;;;;;;;;;;13.30;99.90;;;;;;4864209;29;19945;-82
2023/09/19 01:10:20;;;;;;;;;;;13.30;99.90;;;;;;4862985;29;19970;-81
2023/09/19 01:13:05;;;;;;;;;;;13.20;99.90;;;;;;4863557;29;19971;-81
2023/09/19 01:15:46;;;;;;;;;;;13.20;99.90;;;;;;4879179;29;19924;-82
2023/09/19 01:18:34;;;;;;;;;;;13.20;99.90;;;;;;4878916;29;19928;-80
2023/09/19 01:21:00;;;;;;;;;;;13.20;99.90;;;;;;4878566;29;19927;-81
2023/09/19 01:23:44;;;;;;;;;;;13.20;99.90;;;;;;4876363;29;19926;-80
2023/09/19 01:26:10;;;;;;;;;;;13.20;99.90;;;;;;4877595;29;19926;-80
2023/09/19 01:28:53;;;;;;;;;;;13.20;99.90;;;;;;4861122;29;19923;-80
2023/09/19 01:31:20;;;;;;;;;;;13.20;99.90;;;;;;4862604;29;19940;-80
2023/09/19 01:33:59;;;;;;;;;;;13.20;99.90;;;;;;4878358;29;19926;-80
2023/09/19 01:36:25;;;;;;;;;;;13.20;99.90;;;;;;4863119;29;20284;-80
2023/09/19 01:38:52;;;;;;;;;;;13.20;99.90;;;;;;4862983;29;20299;-81
2023/09/19 01:41:22;;;;;;;;;;;13.10;99.90;;;;;;4878189;29;20388;-80
2023/09/19 01:43:50;;;;;;;;;;;13.10;99.90;;;;;;4878464;29;19930;-80
2023/09/19 01:46:15;;;;;;;;;;;13.10;99.90;;;;;;4878607;29;19920;-80
2023/09/19 01:49:02;;;;;;;;;;;13.10;99.90;;;;;;4863025;29;19929;-80
2023/09/19 01:51:33;;;;;;;;;;;13.10;99.90;;;;;;4878514;29;19920;-80
2023/09/19 01:54:03;;;;;;;;;;;13.10;99.90;;;;;;4862569;29;19962;-80
2023/09/19 01:56:32;;;;;;;;;;;13.00;99.90;;;;;;4862410;29;19923;-80
2023/09/19 01:59:03;;;;;;;;;;;12.90;99.90;;;;;;4878220;29;20388;-81
2023/09/19 02:01:29;;;;;;;;;;;12.90;99.90;;;;;;4866990;29;19923;-81
2023/09/19 02:03:56;;;;;;;;;;;12.90;99.90;;;;;;4866388;29;20375;-81
2023/09/19 02:06:22;;;;;;;;;;;12.90;99.90;;;;;;4861035;29;20008;-81
2023/09/19 02:08:48;;;;;;;;;;;12.80;99.90;;;;;;4878151;29;19920;-81
2023/09/19 02:11:14;;;;;;;;;;;12.80;99.90;;;;;;4878207;29;19956;-82
2023/09/19 02:13:40;;;;;;;;;;;12.70;99.90;;;;;;4878021;29;19920;-81
2023/09/19 02:16:07;;;;;;;;;;;12.70;99.90;;;;;;4862691;29;19920;-81
2023/09/19 02:18:34;;;;;;;;;;;12.70;99.90;;;;;;4835147;29;19931;-81
2023/09/19 02:21:04;;;;;;;;;;;12.70;99.90;;;;;;4878401;29;19920;-81
2023/09/19 02:23:30;;;;;;;;;;;12.60;99.90;;;;;;4877624;29;19923;-81
2023/09/19 02:26:00;;;;;;;;;;;12.60;99.90;;;;;;4862636;29;19972;-81
2023/09/19 02:28:29;;;;;;;;;;;12.60;99.90;;;;;;4877363;29;19931;-81
2023/09/19 02:30:55;;;;;;;;;;;12.60;99.90;;;;;;4860998;29;19923;-81
2023/09/19 02:33:21;;;;;;;;;;;12.50;99.90;;;;;;4877190;29;20233;-80
2023/09/19 02:35:47;;;;;;;;;;;12.50;99.90;;;;;;4875712;29;19931;-80
2023/09/19 02:38:14;;;;;;;;;;;12.50;99.90;;;;;;4875348;29;20380;-80
2023/09/19 02:40:40;;;;;;;;;;;12.50;99.90;;;;;;4863503;29;20006;-80
2023/09/19 02:43:06;;;;;;;;;;;12.40;99.90;;;;;;4861055;29;20479;-80
2023/09/19 02:45:32;;;;;;;;;;;12.50;99.90;;;;;;4876910;29;19923;-80
2023/09/19 02:47:58;;;;;;;;;;;12.40;99.90;;;;;;4875535;29;20439;-80
2023/09/19 02:50:23;;;;;;;;;;;12.40;99.90;;;;;;4861421;29;19924;-80
2023/09/19 02:52:49;;;;;;;;;;;12.40;99.90;;;;;;4861185;29;19923;-80
2023/09/19 02:55:17;;;;;;;;;;;12.40;99.90;;;;;;4877067;29;20056;-79
2023/09/19 02:57:49;;;;;;;;;;;12.40;99.90;;;;;;4876459;29;19932;-80
2023/09/19 03:00:16;;;;;;;;;;;12.40;99.90;;;;;;4876618;29;20368;-80
2023/09/19 03:02:42;;;;;;;;;;;12.40;99.90;;;;;;4861436;29;19984;-80
2023/09/19 03:05:11;;;;;;;;;;;12.40;99.90;;;;;;4861169;29;19923;-80
2023/09/19 03:07:38;;;;;;;;;;;12.40;99.90;;;;;;4876469;29;19926;-80
2023/09/19 03:10:05;;;;;;;;;;;12.50;99.90;;;;;;4876752;29;19997;-80
2023/09/19 03:12:31;;;;;;;;;;;12.50;99.90;;;;;;4860260;29;19930;-80
2023/09/19 03:14:57;;;;;;;;;;;12.50;99.90;;;;;;4876767;29;19924;-80
2023/09/19 03:17:23;;;;;;;;;;;12.50;99.90;;;;;;4876138;29;20295;-79
2023/09/19 03:19:48;;;;;;;;;;;12.50;99.90;;;;;;4876700;29;19971;-79
2023/09/19 03:22:14;;;;;;;;;;;12.50;99.90;;;;;;4860836;29;19920;-79
2023/09/19 03:24:41;;;;;;;;;;;12.50;99.90;;;;;;4876248;29;19924;-79
2023/09/19 03:27:08;;;;;;;;;;;12.50;99.90;;;;;;4842830;29;20360;-79
2023/09/19 03:29:35;;;;;;;;;;;12.50;99.90;;;;;;4857323;29;19920;-79
2023/09/19 03:32:01;;;;;;;;;;;12.50;99.90;;;;;;4860494;29;20335;-79
2023/09/19 03:34:27;;;;;;;;;;;12.50;99.90;;;;;;4873879;29;19976;-79
2023/09/19 03:36:52;;;;;;;;;;;12.50;99.90;;;;;;4875217;29;19927;-79
2023/09/19 03:39:18;;;;;;;;;;;12.50;99.90;;;;;;4876032;29;19927;-79
2023/09/19 03:41:45;;;;;;;;;;;12.50;99.90;;;;;;4842416;29;19924;-81
2023/09/19 03:44:10;;;;;;;;;;;12.60;99.90;;;;;;4872402;29;19923;-80
2023/09/19 03:46:36;;;;;;;;;;;12.60;99.90;;;;;;4861280;29;19931;-80
2023/09/19 03:49:02;;;;;;;;;;;12.50;99.90;;;;;;4861514;29;19919;-80
2023/09/19 03:51:28;;;;;;;;;;;12.50;99.90;;;;;;4876718;29;19930;-81
2023/09/19 03:53:53;;;;;;;;;;;12.50;99.90;;;;;;4860989;29;19920;-81
2023/09/19 03:56:19;;;;;;;;;;;12.50;99.90;;;;;;4876721;29;19924;-80
2023/09/19 03:58:45;;;;;;;;;;;12.50;99.90;;;;;;4875391;29;20388;-81
2023/09/19 04:01:10;;;;;;;;;;;12.50;99.90;;;;;;4868373;29;19920;-81
2023/09/19 04:03:57;;;;;;;;;;;12.50;99.90;;;;;;4865288;29;19926;-81
2023/09/19 04:06:22;;;;;;;;;;;12.50;99.90;;;;;;4876065;29;20014;-81
2023/09/19 04:08:48;;;;;;;;;;;12.50;99.90;;;;;;4874255;29;20032;-81
2023/09/19 04:11:13;;;;;;;;;;;12.60;99.90;;;;;;4877094;29;19923;-81
2023/09/19 04:13:39;;;;;;;;;;;12.60;99.90;;;;;;4861158;29;19987;-81
2023/09/19 04:16:06;;;;;;;;;;;12.70;99.90;;;;;;4855625;29;19980;-81
2023/09/19 04:18:33;;;;;;;;;;;12.70;99.90;;;;;;4861689;29;20331;-81
2023/09/19 04:21:01;;;;;;;;;;;12.70;99.90;;;;;;4876570;29;19943;-82
2023/09/19 04:23:26;;;;;;;;;;;12.70;99.90;;;;;;4878174;29;19924;-81
2023/09/19 04:25:52;;;;;;;;;;;12.80;99.90;;;;;;4849303;29;19934;-80
2023/09/19 04:28:17;;;;;;;;;;;12.80;99.90;;;;;;4845118;29;20283;-82
2023/09/19 04:30:43;;;;;;;;;;;12.80;99.90;;;;;;4859932;29;19930;-80
2023/09/19 04:33:09;;;;;;;;;;;12.80;99.90;;;;;;4880019;29;19923;-81
2023/09/19 04:35:35;;;;;;;;;;;12.80;99.90;;;;;;4876623;29;19921;-82
2023/09/19 04:38:01;;;;;;;;;;;12.80;99.90;;;;;;4864495;29;20292;-81
2023/09/19 04:40:26;;;;;;;;;;;12.80;99.90;;;;;;4880604;29;19920;-82
2023/09/19 04:42:59;;;;;;;;;;;12.90;99.90;;;;;;4880322;29;20414;-82
2023/09/19 04:45:29;;;;;;;;;;;12.80;99.90;;;;;;4879511;29;19924;-82
2023/09/19 04:47:55;;;;;;;;;;;12.80;99.90;;;;;;4876346;29;19971;-82
2023/09/19 04:50:26;;;;;;;;;;;12.80;99.90;;;;;;4880617;29;19943;-82
2023/09/19 04:52:52;;;;;;;;;;;12.90;99.90;;;;;;4864895;29;20006;-82
2023/09/19 04:55:18;;;;;;;;;;;12.80;99.90;;;;;;4849336;29;20369;-82
2023/09/19 04:57:45;;;;;;;;;;;12.90;99.90;;;;;;4864792;29;20380;-82
2023/09/19 05:00:12;;;;;;;;;;;12.90;99.90;;;;;;4864357;29;19920;-82
2023/09/19 05:02:38;;;;;;;;;;;12.90;99.90;;;;;;4845419;29;19920;-82
2023/09/19 05:05:04;;;;;;;;;;;12.90;99.90;;;;;;4863823;29;19923;-81
2023/09/19 05:07:30;;;;;;;;;;;12.90;99.90;;;;;;4857068;29;19927;-82
2023/09/19 05:09:56;;;;;;;;;;;13.00;99.90;;;;;;4848331;29;19920;-81
2023/09/19 05:12:21;;;;;;;;;;;12.90;99.90;;;;;;4862750;29;20372;-81
2023/09/19 05:14:47;;;;;;;;;;;12.90;99.90;;;;;;4849196;29;19930;-82
2023/09/19 05:17:13;;;;;;;;;;;12.90;99.90;;;;;;4863864;29;19923;-82
2023/09/19 05:19:39;;;;;;;;;;;13.00;99.90;;;;;;4864887;29;20377;-82
2023/09/19 05:22:04;;;;;;;;;;;13.00;99.90;;;;;;4864108;29;20003;-82
2023/09/19 05:24:30;;;;;;;;;;;13.10;99.90;;;;;;4864064;29;19920;-82
2023/09/19 05:26:56;;;;;;;;;;;13.00;99.90;;;;;;4875768;29;20087;-84
2023/09/19 05:29:22;;;;;;;;;;;13.10;99.90;;;;;;4858272;29;20015;-85
2023/09/19 05:31:49;;;;;;;;;;;13.10;99.90;;;;;;4867615;29;20010;-86
2023/09/19 05:34:15;;;;;;;;;;;13.10;99.90;;;;;;4859343;29;20345;-81
2023/09/19 05:36:41;;;;;;;;;;;13.10;99.90;;;;;;4877705;29;19928;-81
2023/09/19 05:39:09;;;;;;;;;;;13.10;99.90;;;;;;4877630;29;19923;-81
2023/09/19 05:41:36;;;;;;;;;;;13.10;99.90;;;;;;4877309;29;20004;-81
2023/09/19 05:44:02;;;;;;;;;;;13.10;99.90;;;;;;4868072;29;19924;-81
2023/09/19 05:46:29;;;;;;;;;;;13.20;99.90;;;;;;4891030;29;19927;-81
2023/09/19 05:48:56;;;;;;;;;;;13.20;99.90;;;;;;4858324;29;20367;-81
2023/09/19 05:51:22;;;;;;;;;;;13.20;99.90;;;;;;4873324;29;19927;-80
2023/09/19 05:53:48;;;;;;;;;;;13.20;99.90;;;;;;4859443;29;19930;-82
2023/09/19 05:56:14;;;;;;;;;;;13.30;99.90;;;;;;4861861;29;19923;-83
2023/09/19 05:58:42;;;;;;;;;;;13.30;99.90;;;;;;4873088;29;20014;-82
2023/09/19 06:01:09;;;;;;;;;;;13.30;99.90;;;;;;4876631;29;20273;-82
2023/09/19 06:03:35;;;;;;;;;;;13.30;99.90;;;;;;4849799;29;19995;-82
2023/09/19 06:06:04;;;;;;;;;;;13.40;99.90;;;;;;4846810;29;20299;-82
2023/09/19 06:08:31;;;;;;;;;;;13.30;99.90;;;;;;4846490;29;19919;-83
2023/09/19 06:10:56;;;;;;;;;;;13.40;99.90;;;;;;4871649;29;19928;-82
2023/09/19 06:13:23;;;;;;;;;;;13.40;99.90;;;;;;4861264;29;20307;-83
2023/09/19 06:15:49;;;;;;;;;;;13.40;99.90;;;;;;4861399;29;20376;-84
2023/09/19 06:18:19;;;;;;;;;;;13.50;99.90;;;;;;4846444;29;19974;-84
2023/09/19 06:20:48;;;;;;;;;;;13.50;99.90;;;;;;4861655;29;20359;-83
2023/09/19 06:23:14;;;;;;;;;;;13.50;99.90;;;;;;4846798;29;19931;-82
2023/09/19 06:25:40;;;;;;;;;;;13.60;99.90;;;;;;4842372;29;19924;-82
2023/09/19 06:28:08;;;;;;;;;;;13.60;99.90;;;;;;4846131;29;19976;-81
2023/09/19 06:30:34;;;;;;;;;;;13.70;99.90;;;;;;4859678;29;19924;-82
2023/09/19 06:33:00;;;;;;;;;;;13.70;99.90;;;;;;4875528;29;19931;-81
2023/09/19 06:35:27;;;;;;;;;;;13.70;99.90;;;;;;4872998;29;19924;-80
2023/09/19 06:37:52;;;;;;;;;;;13.80;99.90;;;;;;4872560;29;20004;-80
2023/09/19 06:40:19;;;;;;;;;;;13.80;99.90;;;;;;4870186;29;19931;-80
2023/09/19 06:42:45;;;;;;;;;;;13.80;99.90;;;;;;4856775;29;20329;-80
2023/09/19 06:45:13;;;;;;;;;;;13.90;99.90;;;;;;4858977;29;19923;-80
2023/09/19 06:47:39;;;;;;;;;;;13.90;99.90;;;;;;4858904;29;20389;-80
2023/09/19 06:50:06;;;;;;;;;;;13.90;99.90;;;;;;4860309;29;20372;-80
2023/09/19 06:52:32;;;;;;;;;;;14.00;99.90;;;;;;4875683;29;20001;-80
2023/09/19 06:54:58;;;;;;;;;;;14.10;99.90;;;;;;4860952;29;19982;-80
2023/09/19 06:57:24;;;;;;;;;;;14.10;99.90;;;;;;4859728;29;20439;-79
2023/09/19 06:59:50;;;;;;;;;;;14.30;99.90;;;;;;4859862;29;19927;-80
2023/09/19 07:02:15;;;;;;;;;;;14.40;99.90;;;;;;4873496;29;19926;-80
2023/09/19 07:04:41;;;;;;;;;;;14.40;99.90;;;;;;4860980;29;20034;-81
2023/09/19 07:07:08;;;;;;;;;;;14.50;99.90;;;;;;4854349;29;20295;-79
2023/09/19 07:09:35;;;;;;;;;;;14.50;99.90;;;;;;4874441;29;19923;-80
2023/09/19 07:12:00;;;;;;;;;;;14.50;99.90;;;;;;4857269;29;20280;-80
2023/09/19 07:14:26;;;;;;;;;;;14.60;99.90;;;;;;4853941;29;19920;-79
2023/09/19 07:16:52;;;;;;;;;;;14.70;99.90;;;;;;4838702;29;19935;-80
2023/09/19 07:19:18;;;;;;;;;;;14.80;99.90;;;;;;4874989;29;19924;-80
2023/09/19 07:21:43;;;;;;;;;;;14.80;99.90;;;;;;4855624;29;19946;-80
2023/09/19 07:24:09;;;;;;;;;;;14.90;99.90;;;;;;4872979;29;20295;-80
2023/09/19 07:26:35;;;;;;;;;;;14.90;99.90;;;;;;4873788;29;19983;-80
2023/09/19 07:29:03;;;;;;;;;;;15.00;99.90;;;;;;4844303;29;20392;-80
2023/09/19 07:31:29;;;;;;;;;;;14.90;99.90;;;;;;4858518;29;19988;-80
2023/09/19 07:33:55;;;;;;;;;;;14.90;99.90;;;;;;4872396;29;19966;-81
2023/09/19 07:36:20;;;;;;;;;;;14.90;99.90;;;;;;4858723;29;19920;-80
2023/09/19 07:38:46;;;;;;;;;;;14.90;99.90;;;;;;4857923;29;19924;-80
2023/09/19 07:41:13;;;;;;;;;;;14.90;99.90;;;;;;4856238;29;19927;-80
2023/09/19 07:43:40;;;;;;;;;;;14.90;99.90;;;;;;4874825;29;20400;-79
2023/09/19 07:46:07;;;;;;;;;;;15.00;99.90;;;;;;4853518;29;19926;-80
2023/09/19 07:48:33;;;;;;;;;;;15.10;99.90;;;;;;4873719;29;19987;-80
2023/09/19 07:51:02;;;;;;;;;;;15.20;99.90;;;;;;4872328;29;19923;-80
2023/09/19 07:53:28;;;;;;;;;;;15.30;99.90;;;;;;4853145;29;20007;-80
2023/09/19 07:56:01;;;;;;;;;;;15.20;99.90;;;;;;4842834;29;20006;-80
2023/09/19 07:58:26;;;;;;;;;;;15.30;99.90;;;;;;4876921;29;19977;-80
2023/09/19 08:00:52;;;;;;;;;;;15.30;99.90;;;;;;4864133;29;20360;-80
2023/09/19 08:03:18;;;;;;;;;;;15.20;99.90;;;;;;4862622;29;19974;-80
2023/09/19 08:05:44;;;;;;;;;;;15.20;99.90;;;;;;4862796;29;19939;-81
2023/09/19 08:08:13;;;;;;;;;;;15.20;99.90;;;;;;4877978;29;19920;-80
2023/09/19 08:10:42;;;;;;;;;;;15.30;99.90;;;;;;4864543;29;19931;-80
2023/09/19 08:13:11;;;;;;;;;;;15.30;99.90;;;;;;4879060;29;20287;-80
2023/09/19 08:15:43;;;;;;;;;;;15.30;99.90;;;;;;4862679;29;19959;-79
2023/09/19 08:18:11;;;;;;;;;;;15.50;99.90;;;;;;4882975;29;19927;-80
2023/09/19 08:20:37;;;;;;;;;;;15.60;91.50;;;;;;4875338;29;20034;-80
2023/09/19 08:23:03;;;;;;;;;;;15.90;96.30;;;;;;4878779;29;20010;-80
2023/09/19 08:25:29;;;;;;;;;;;15.90;1.00;;;;;;4877247;29;20283;-81
2023/09/19 08:27:57;;;;;;;;;;;16.00;99.90;;;;;;4879277;29;19920;-80
2023/09/19 08:30:23;;;;;;;;;;;15.90;99.90;;;;;;4879824;29;19924;-80
2023/09/19 08:32:50;;;;;;;;;;;16.00;99.90;;;;;;4876854;29;19923;-80
2023/09/19 08:35:16;;;;;;;;;;;16.10;99.90;;;;;;4862108;29;19962;-80
2023/09/19 08:37:48;;;;;;;;;;;16.20;99.90;;;;;;4863239;29;19928;-80
2023/09/19 08:40:13;;;;;;;;;;;16.20;99.90;;;;;;4866700;29;20388;-80
2023/09/19 08:42:49;;;;;;;;;;;16.30;99.90;;;;;;4846385;29;19978;-81
2023/09/19 08:45:15;;;;;;;;;;;16.50;99.90;;;;;;4862515;29;19980;-81
2023/09/19 08:47:46;;;;;;;;;;;16.40;99.90;;;;;;4856271;29;19924;-80
2023/09/19 08:50:28;;;;;;;;;;;16.30;24.90;;;;;;4877132;29;20858;-80
2023/09/19 08:52:55;;;;;;;;;;;16.40;99.90;;;;;;4873483;29;19924;-81
2023/09/19 08:55:23;;;;;;;;;;;16.40;99.90;;;;;;4878051;29;19927;-81
2023/09/19 08:57:49;;;;;;;;;;;16.50;99.90;;;;;;4878488;29;19970;-81
2023/09/19 09:00:18;;;;;;;;;;;16.40;1.00;;;;;;4875001;29;19936;-81
2023/09/19 09:02:44;;;;;;;;;;;16.50;13.90;;;;;;4861135;29;19920;-81
2023/09/19 09:05:10;;;;;;;;;;;16.50;49.10;;;;;;4841372;29;19968;-81
2023/09/19 09:07:37;;;;;;;;;;;16.50;1.00;;;;;;4860304;29;19928;-79
2023/09/19 09:10:03;;;;;;;;;;;16.50;1.00;;;;;;4874713;29;19927;-80
2023/09/19 09:12:29;;;;;;;;;;;16.50;1.00;;;;;;4862536;29;19943;-80
2023/09/19 09:14:57;;;;;;;;;;;16.40;1.00;;;;;;4863195;29;19930;-79
2023/09/19 09:17:25;;;;;;;;;;;16.40;99.90;;;;;;4877956;29;19950;-79
2023/09/19 09:19:53;;;;;;;;;;;16.50;99.90;;;;;;4861107;29;19930;-80
2023/09/19 09:22:21;;;;;;;;;;;16.60;99.90;;;;;;4874279;29;19930;-80
2023/09/19 09:24:53;;;;;;;;;;;16.60;99.90;;;;;;4863503;29;19920;-79
2023/09/19 09:27:19;;;;;;;;;;;16.70;99.90;;;;;;4850249;29;20077;-80
2023/09/19 09:29:52;;;;;;;;;;;16.70;99.90;;;;;;4857662;29;19920;-80
2023/09/19 09:32:19;;;;;;;;;;;16.60;99.90;;;;;;4875718;29;20431;-79
2023/09/19 09:34:47;;;;;;;;;;;16.50;99.90;;;;;;4875816;29;19920;-79
2023/09/19 09:37:15;;;;;;;;;;;16.60;99.90;;;;;;4854464;29;20018;-80
2023/09/19 09:39:48;;;;;;;;;;;16.70;99.90;;;;;;4860506;29;19924;-80
2023/09/19 09:42:31;;;;;;;;;;;16.80;99.90;;;;;;4883287;29;19928;-79
2023/09/19 09:45:16;;;;;;;;;;;16.90;99.90;;;;;;4855956;29;19924;-79
2023/09/19 09:47:49;;;;;;;;;;;17.10;99.90;;;;;;4853423;29;20040;-79
2023/09/19 09:50:44;;;;;;;;;;;17.40;99.90;;;;;;4870021;29;19919;-79
2023/09/19 09:53:31;;;;;;;;;;;17.50;1.00;;;;;;4860872;29;20042;-80
2023/09/19 09:56:07;;;;;;;;;;;17.40;99.90;;;;;;4867147;29;20225;-80
2023/09/19 09:58:35;;;;;;;;;;;17.30;99.90;;;;;;4859745;29;19958;-80
2023/09/19 10:01:08;;;;;;;;;;;17.30;99.90;;;;;;4860041;29;20387;-79
2023/09/19 10:03:41;;;;;;;;;;;17.40;99.90;;;;;;4859859;29;19978;-79
2023/09/19 10:06:26;;;;;;;;;;;17.40;99.90;;;;;;4857282;29;19928;-79
2023/09/19 10:09:11;;;;;;;;;;;17.60;99.90;;;;;;4860198;29;19920;-79
2023/09/19 10:11:47;;;;;;;;;;;17.70;99.90;;;;;;4856024;29;19923;-79
2023/09/19 10:14:15;;;;;;;;;;;17.70;99.90;;;;;;4876957;29;19928;-80
2023/09/19 10:16:45;;;;;;;;;;;17.80;99.90;;;;;;4856342;29;20385;-80
2023/09/19 10:19:14;;;;;;;;;;;17.70;1.00;;;;;;4876073;29;19959;-79
2023/09/19 10:21:40;;;;;;;;;;;17.70;97.10;;;;;;4874548;29;19919;-80
2023/09/19 10:24:08;;;;;;;;;;;17.80;99.90;;;;;;4858534;29;19976;-81
2023/09/19 10:26:35;;;;;;;;;;;17.90;99.90;;;;;;4855247;29;19930;-81
2023/09/19 10:29:02;;;;;;;;;;;17.90;1.00;;;;;;4860101;29;19926;-82
2023/09/19 10:31:28;;;;;;;;;;;17.90;1.00;;;;;;4878146;29;19919;-82
2023/09/19 10:33:55;;;;;;;;;;;17.90;99.90;;;;;;4861963;29;20463;-82
2023/09/19 10:36:25;;;;;;;;;;;18.00;99.90;;;;;;4876867;29;20317;-82
2023/09/19 10:38:54;;;;;;;;;;;18.20;99.90;;;;;;4870706;29;19974;-81
2023/09/19 10:41:21;;;;;;;;;;;18.50;1.00;;;;;;4875453;29;20578;-81
2023/09/19 10:43:48;;;;;;;;;;;18.50;1.00;;;;;;4876988;29;19919;-81
2023/09/19 10:46:14;;;;;;;;;;;18.50;1.00;;;;;;4862243;29;19924;-81
2023/09/19 10:48:40;;;;;;;;;;;18.30;44.50;;;;;;4876149;29;19927;-79
2023/09/19 10:51:07;;;;;;;;;;;18.20;75.30;;;;;;4877376;29;20317;-81
2023/09/19 10:53:42;;;;;;;;;;;18.00;99.90;;;;;;4875871;29;19956;-81
2023/09/19 10:56:14;;;;;;;;;;;18.00;99.90;;;;;;4857514;29;19919;-81
2023/09/19 10:58:44;;;;;;;;;;;17.80;99.90;;;;;;4859155;29;19966;-81
2023/09/19 11:01:17;;;;;;;;;;;17.80;1.00;;;;;;4879342;29;20290;-82
2023/09/19 11:03:44;;;;;;;;;;;17.80;99.90;;;;;;4875878;29;19980;-81
2023/09/19 11:06:16;;;;;;;;;;;17.90;99.90;;;;;;4838593;29;19971;-79
2023/09/19 11:08:51;;;;;;;;;;;17.80;1.00;;;;;;4877886;29;20398;-82
2023/09/19 11:11:35;;;;;;;;;;;17.80;1.00;;;;;;4863064;29;19939;-81
2023/09/19 11:14:25;;;;;;;;;;;17.80;1.00;;;;;;4879041;29;19919;-83
2023/09/19 11:17:15;;;;;;;;;;;17.80;99.90;;;;;;4873269;29;19920;-82
2023/09/19 11:20:00;;;;;;;;;;;17.80;99.90;;;;;;4859033;29;19923;-84
2023/09/19 11:22:26;;;;;;;;;;;17.80;96.10;;;;;;4860148;29;19919;-81
2023/09/19 11:24:52;;;;;;;;;;;17.90;1.00;;;;;;4877758;29;19919;-82
2023/09/19 11:27:18;;;;;;;;;;;17.90;99.90;;;;;;4878026;29;19942;-82
2023/09/19 11:29:44;;;;;;;;;;;17.90;38.80;;;;;;4862357;29;19962;-82
2023/09/19 11:32:10;;;;;;;;;;;17.90;94.80;;;;;;4876753;29;19920;-82
2023/09/19 11:34:35;;;;;;;;;;;17.80;77.60;;;;;;4858493;29;19931;-83
2023/09/19 11:37:04;;;;;;;;;;;17.80;22.20;;;;;;4856626;29;20371;-82
2023/09/19 11:39:30;;;;;;;;;;;18.00;99.90;;;;;;4873194;29;19978;-83
2023/09/19 11:41:56;;;;;;;;;;;18.30;93.80;;;;;;4871492;29;19920;-82
2023/09/19 11:44:25;;;;;;;;;;;18.50;1.00;;;;;;4872509;29;19932;-82
2023/09/19 11:46:50;;;;;;;;;;;18.40;99.90;;;;;;4873966;29;19927;-83
2023/09/19 11:49:20;;;;;;;;;;;18.30;99.90;;;;;;4872752;29;19920;-83
2023/09/19 11:51:48;;;;;;;;;;;18.20;99.90;;;;;;4861224;29;19920;-85
2023/09/19 11:54:18;;;;;;;;;;;18.30;99.90;;;;;;4847188;29;19978;-83
2023/09/19 11:56:50;;;;;;;;;;;18.30;1.00;;;;;;4878959;29;19951;-82
2023/09/19 11:59:29;;;;;;;;;;;18.20;1.00;;;;;;4878791;29;19953;-81
2023/09/19 12:01:58;;;;;;;;;;;18.20;37.10;;;;;;4866274;29;19920;-82
2023/09/19 12:04:41;;;;;;;;;;;18.00;1.00;;;;;;4863199;29;20307;-83
2023/09/19 12:07:10;;;;;;;;;;;17.90;99.90;;;;;;4873472;29;20011;-83
2023/09/19 12:09:40;;;;;;;;;;;17.80;99.90;;;;;;4860601;29;19931;-83
2023/09/19 12:12:06;;;;;;;;;;;17.70;99.90;;;;;;4878541;29;20605;-83
2023/09/19 12:14:32;;;;;;;;;;;17.70;99.90;;;;;;4845987;29;20028;-83
2023/09/19 12:17:00;;;;;;;;;;;17.60;99.90;;;;;;4875360;29;20288;-83
2023/09/19 12:19:26;;;;;;;;;;;17.70;99.90;;;;;;4861950;29;20011;-80
2023/09/19 12:21:59;;;;;;;;;;;17.70;99.90;;;;;;4876125;29;19963;-82
2023/09/19 12:24:29;;;;;;;;;;;17.60;1.00;;;;;;4859294;29;19920;-83
2023/09/19 12:27:04;;;;;;;;;;;17.60;99.90;;;;;;4876630;29;19927;-80
2023/09/19 12:29:31;;;;;;;;;;;17.60;1.00;;;;;;4860707;29;19924;-80
2023/09/19 12:32:03;;;;;;;;;;;17.60;93.70;;;;;;4858910;29;19927;-81
2023/09/19 12:34:30;;;;;;;;;;;17.50;99.90;;;;;;4857795;29;19927;-80
2023/09/19 12:37:12;;;;;;;;;;;17.30;8.50;;;;;;4873998;29;20383;-80
2023/09/19 12:39:38;;;;;;;;;;;17.20;1.00;;;;;;4870670;29;19970;-82
2023/09/19 12:42:08;;;;;;;;;;;17.20;99.90;;;;;;4875499;29;19927;-81
2023/09/19 12:44:35;;;;;;;;;;;17.20;99.90;;;;;;4875682;29;19967;-80
2023/09/19 12:47:09;;;;;;;;;;;17.30;99.90;;;;;;4878486;29;19994;-81
2023/09/19 12:49:34;;;;;;;;;;;17.30;99.90;;;;;;4879440;29;19924;-80
2023/09/19 12:52:00;;;;;;;;;;;17.40;99.90;;;;;;4861422;29;19919;-79
2023/09/19 12:54:37;;;;;;;;;;;17.50;99.90;;;;;;4878974;29;19920;-81
2023/09/19 12:57:02;;;;;;;;;;;17.60;99.90;;;;;;4878451;29;19944;-80
2023/09/19 12:59:30;;;;;;;;;;;17.70;99.90;;;;;;4886249;29;19932;-79
2023/09/19 13:02:03;;;;;;;;;;;17.70;99.90;;;;;;4878104;29;19938;-81
2023/09/19 13:04:30;;;;;;;;;;;17.70;25.40;;;;;;4877615;29;19977;-79
2023/09/19 13:06:59;;;;;;;;;;;17.70;93.10;;;;;;4860748;29;19916;-79
2023/09/19 13:09:28;;;;;;;;;;;17.70;28.20;;;;;;4875044;29;19924;-79
2023/09/19 13:11:54;;;;;;;;;;;17.60;20.20;;;;;;4874014;29;19923;-77
2023/09/19 13:14:21;;;;;;;;;;;17.60;99.90;;;;;;4876026;29;19923;-77
2023/09/19 13:17:14;;;;;;;;;;;17.60;99.90;;;;;;4876802;29;20598;-77
2023/09/19 13:19:41;;;;;;;;;;;17.60;99.90;;;;;;4878108;29;20015;-79
2023/09/19 13:22:31;;;;;;;;;;;17.70;99.90;;;;;;4878457;29;19923;-78
2023/09/19 13:24:58;;;;;;;;;;;17.60;99.90;;;;;;4882099;29;19923;-78
2023/09/19 13:27:24;;;;;;;;;;;17.50;93.50;;;;;;4872497;29;19935;-79
2023/09/19 13:29:49;;;;;;;;;;;17.40;99.90;;;;;;4890681;29;19923;-79
2023/09/19 13:32:15;;;;;;;;;;;17.30;99.90;;;;;;4883171;29;19923;-78
2023/09/19 13:34:40;;;;;;;;;;;17.20;99.90;;;;;;4875892;29;20387;-78
2023/09/19 13:37:06;;;;;;;;;;;17.20;99.90;;;;;;4860174;29;19926;-79
2023/09/19 13:39:32;;;;;;;;;;;17.20;1.00;;;;;;4856112;29;19979;-80
2023/09/19 13:41:58;;;;;;;;;;;17.20;99.90;;;;;;4873477;29;20019;-79
2023/09/19 13:44:24;;;;;;;;;;;17.20;99.90;;;;;;4872240;29;19970;-79
2023/09/19 13:46:50;;;;;;;;;;;17.30;99.90;;;;;;4875922;29;19971;-81
2023/09/19 13:49:17;;;;;;;;;;;17.40;99.90;;;;;;4874437;29;19923;-79
2023/09/19 13:51:43;;;;;;;;;;;17.40;99.90;;;;;;4877955;29;20336;-78
2023/09/19 13:54:11;;;;;;;;;;;17.50;99.90;;;;;;4862494;29;19995;-82
2023/09/19 13:56:37;;;;;;;;;;;17.60;99.90;;;;;;4861402;29;20295;-79
2023/09/19 13:59:03;;;;;;;;;;;17.70;99.90;;;;;;4877342;29;19927;-78
2023/09/19 14:01:28;;;;;;;;;;;17.90;99.90;;;;;;4843779;29;20455;-79
2023/09/19 14:03:56;;;;;;;;;;;17.90;93.70;;;;;;4859144;29;19939;-78
2023/09/19 14:06:22;;;;;;;;;;;17.90;79.20;;;;;;4872841;29;19930;-80
2023/09/19 14:08:49;;;;;;;;;;;17.90;1.00;;;;;;4868589;29;19924;-78
2023/09/19 14:11:15;;;;;;;;;;;17.90;99.90;;;;;;4859849;29;19963;-82
2023/09/19 14:13:43;;;;;;;;;;;17.80;2.10;;;;;;4874884;29;19930;-79
2023/09/19 14:16:09;;;;;;;;;;;17.80;99.90;;;;;;4876374;29;20681;-78
2023/09/19 14:18:35;;;;;;;;;;;17.80;50.40;;;;;;4853627;29;19924;-78
2023/09/19 14:21:04;;;;;;;;;;;17.90;1.00;;;;;;4876169;29;19927;-80
2023/09/19 14:23:41;;;;;;;;;;;17.90;55.90;;;;;;4875613;29;19963;-78
2023/09/19 14:26:06;;;;;;;;;;;17.90;1.00;;;;;;4872734;29;20003;-79